Time;durP1;ratioP1;P1;durP2;ratioP2;P2;SDS_P1;SDS_P2;PMS_P1;PMS_P2;Temp;Humidity;BMP_temperature;BMP_pressure;BME280_temperature;BME280_humidity;BME280_pressure;Samples;Min_cycle;Max_cycle;Signal;HPM_P1;HPM_P2
2023/03/22 00:01:18;;;;;;;13.77;11.37;;;10.20;99.90;;;;;;5007620;28;20214;-72
2023/03/22 00:03:46;;;;;;;15.40;12.77;;;10.20;99.90;;;;;;5007869;28;20232;-71
2023/03/22 00:06:13;;;;;;;14.37;11.43;;;10.20;99.90;;;;;;5007534;28;20289;-71
2023/03/22 00:08:41;;;;;;;14.60;11.50;;;10.20;99.90;;;;;;5007775;28;20317;-74
2023/03/22 00:11:08;;;;;;;13.40;11.97;;;10.10;99.90;;;;;;5008074;28;20324;-73
2023/03/22 00:13:36;;;;;;;13.60;11.87;;;10.10;99.90;;;;;;5007637;28;20252;-73
2023/03/22 00:16:03;;;;;;;14.30;11.47;;;10.10;99.90;;;;;;5007498;28;20201;-73
2023/03/22 00:18:31;;;;;;;14.73;11.23;;;10.10;99.90;;;;;;5007454;28;20248;-74
2023/03/22 00:20:59;;;;;;;12.80;11.27;;;10.10;99.90;;;;;;5006138;28;20304;-73
2023/03/22 00:23:26;;;;;;;14.07;11.90;;;10.10;99.90;;;;;;5007521;28;20213;-73
2023/03/22 00:25:55;;;;;;;13.50;11.30;;;10.10;99.90;;;;;;5007181;28;20210;-73
2023/03/22 00:28:22;;;;;;;13.87;12.13;;;10.10;99.90;;;;;;5007481;28;20217;-73
2023/03/22 00:30:54;;;;;;;12.57;11.23;;;10.10;99.90;;;;;;5006896;28;20300;-73
2023/03/22 00:33:21;;;;;;;11.40;10.13;;;10.10;99.90;;;;;;5006837;28;20699;-73
2023/03/22 00:35:49;;;;;;;14.03;11.27;;;10.10;99.90;;;;;;5007113;28;20225;-73
2023/03/22 00:38:16;;;;;;;11.57;10.40;;;10.10;99.90;;;;;;5007127;28;20223;-72
2023/03/22 00:40:43;;;;;;;11.90;10.80;;;10.00;99.90;;;;;;5006676;28;20627;-72
2023/03/22 00:43:11;;;;;;;13.40;10.77;;;10.00;99.90;;;;;;5024148;28;21159;-72
2023/03/22 00:45:39;;;;;;;12.77;10.83;;;9.90;99.90;;;;;;5016646;28;20217;-73
2023/03/22 00:48:07;;;;;;;13.53;10.83;;;9.90;99.90;;;;;;5006728;28;20208;-72
2023/03/22 00:50:34;;;;;;;12.00;10.73;;;9.90;99.90;;;;;;5006781;28;20214;-72
2023/03/22 00:53:01;;;;;;;13.23;10.97;;;9.90;99.90;;;;;;5002549;28;20238;-72
2023/03/22 00:55:28;;;;;;;11.83;10.63;;;9.90;99.90;;;;;;4990661;28;20296;-72
2023/03/22 00:57:55;;;;;;;13.90;11.17;;;9.90;99.90;;;;;;5006415;28;20220;-72
2023/03/22 01:00:24;;;;;;;13.17;10.90;;;9.90;99.90;;;;;;5006444;28;20284;-73
2023/03/22 01:02:52;;;;;;;12.97;11.47;;;9.90;99.90;;;;;;5006109;28;20743;-73
2023/03/22 01:05:20;;;;;;;15.97;10.63;;;9.90;99.90;;;;;;5006155;28;20210;-72
2023/03/22 01:07:49;;;;;;;13.60;10.80;;;9.90;99.90;;;;;;5006376;28;20703;-73
2023/03/22 01:10:17;;;;;;;11.50;10.40;;;10.00;99.90;;;;;;5006293;28;20241;-73
2023/03/22 01:12:45;;;;;;;12.73;11.20;;;10.00;99.90;;;;;;5006145;28;20237;-73
2023/03/22 01:15:13;;;;;;;14.40;11.07;;;10.00;99.90;;;;;;5006852;28;20908;-73
2023/03/22 01:17:42;;;;;;;12.47;10.27;;;10.00;99.90;;;;;;5006661;28;20308;-73
2023/03/22 01:20:10;;;;;;;13.13;10.93;;;9.90;99.90;;;;;;5006532;28;20213;-74
2023/03/22 01:22:37;;;;;;;12.40;11.10;;;10.00;99.90;;;;;;5006591;28;20237;-73
2023/03/22 01:25:04;;;;;;;12.87;11.17;;;10.00;99.90;;;;;;5006348;28;20205;-74
2023/03/22 01:27:31;;;;;;;13.70;11.40;;;9.90;99.90;;;;;;5006332;28;20302;-73
2023/03/22 01:29:58;;;;;;;13.83;11.87;;;9.90;99.90;;;;;;5006218;28;20286;-73
2023/03/22 01:32:25;;;;;;;14.17;12.27;;;9.80;99.90;;;;;;5006628;28;20702;-73
2023/03/22 01:34:54;;;;;;;13.23;11.93;;;9.80;99.90;;;;;;5005822;28;20236;-73
2023/03/22 01:37:26;;;;;;;13.73;12.33;;;9.70;99.90;;;;;;5006268;28;20454;-73
2023/03/22 01:39:53;;;;;;;13.20;11.80;;;9.70;99.90;;;;;;5006243;28;20210;-73
2023/03/22 01:42:21;;;;;;;14.23;12.40;;;9.80;99.90;;;;;;5005272;28;20981;-74
2023/03/22 01:45:21;;;;;;;14.23;12.60;;;9.80;99.90;;;;;;5005593;28;20822;-74
2023/03/22 01:47:51;;;;;;;13.37;12.00;;;9.80;99.90;;;;;;5005927;28;20296;-74
2023/03/22 01:50:21;;;;;;;13.43;12.07;;;9.80;99.90;;;;;;5005887;28;20287;-73
2023/03/22 01:52:49;;;;;;;13.90;12.40;;;9.70;99.90;;;;;;5005557;28;20292;-74
2023/03/22 01:55:17;;;;;;;15.33;11.67;;;9.80;99.90;;;;;;5005883;28;20205;-74
2023/03/22 01:57:45;;;;;;;13.73;12.13;;;9.80;99.90;;;;;;5005381;28;20212;-74
2023/03/22 02:00:14;;;;;;;13.03;11.70;;;9.80;99.90;;;;;;5005731;28;20320;-74
2023/03/22 02:02:41;;;;;;;13.07;10.83;;;9.80;99.90;;;;;;5005506;28;20779;-74
2023/03/22 02:05:11;;;;;;;13.00;11.70;;;9.80;99.90;;;;;;5005938;28;20249;-75
2023/03/22 02:07:42;;;;;;;14.60;12.10;;;9.80;99.90;;;;;;5005872;28;20213;-75
2023/03/22 02:10:12;;;;;;;16.00;12.07;;;9.80;99.90;;;;;;5005807;28;20340;-74
2023/03/22 02:12:47;;;;;;;13.43;12.03;;;9.80;99.90;;;;;;5005533;28;20218;-76
2023/03/22 02:15:20;;;;;;;13.30;11.77;;;9.80;99.90;;;;;;5005645;28;20221;-76
2023/03/22 02:18:05;;;;;;;15.43;12.27;;;9.80;99.90;;;;;;5005834;28;20575;-76
2023/03/22 02:21:12;;;;;;;14.20;12.20;;;9.80;99.90;;;;;;5005457;28;20295;-75
2023/03/22 02:24:22;;;;;;;13.13;11.43;;;9.80;99.90;;;;;;5003614;28;20664;-76
2023/03/22 02:27:27;;;;;;;14.07;11.67;;;9.80;99.90;;;;;;5005374;28;20194;-77
2023/03/22 02:30:03;;;;;;;13.47;11.87;;;9.70;99.90;;;;;;5005491;28;20323;-73
2023/03/22 02:33:06;;;;;;;12.80;11.50;;;9.80;99.90;;;;;;5005458;28;20615;-72
2023/03/22 02:35:50;;;;;;;12.90;11.50;;;9.80;99.90;;;;;;5005402;28;20307;-72
2023/03/22 02:38:56;;;;;;;13.60;11.93;;;9.80;99.90;;;;;;5005850;28;20213;-72
2023/03/22 02:41:35;;;;;;;13.57;11.97;;;9.80;99.90;;;;;;4942957;29;20213;-71
2023/03/22 02:44:14;;;;;;;13.20;11.80;;;9.70;99.90;;;;;;4997688;28;20311;-73
2023/03/22 02:46:45;;;;;;;13.20;11.90;;;9.70;99.90;;;;;;5009374;28;20209;-72
2023/03/22 02:49:19;;;;;;;13.47;12.03;;;9.70;99.90;;;;;;5008917;28;20217;-72
2023/03/22 02:51:52;;;;;;;14.63;12.90;;;9.70;99.90;;;;;;5008666;28;20675;-72
2023/03/22 02:54:27;;;;;;;14.00;12.07;;;9.70;99.90;;;;;;5009278;28;20633;-73
2023/03/22 02:57:01;;;;;;;13.93;12.53;;;9.70;99.90;;;;;;5008944;28;20256;-72
2023/03/22 02:59:31;;;;;;;13.57;12.27;;;9.70;99.90;;;;;;5009053;28;20324;-73
2023/03/22 03:02:00;;;;;;;13.17;11.80;;;9.70;99.90;;;;;;5009136;28;20641;-73
2023/03/22 03:04:30;;;;;;;14.93;11.80;;;9.70;99.90;;;;;;5008505;28;20292;-73
2023/03/22 03:07:08;;;;;;;14.60;13.07;;;9.60;99.90;;;;;;5008761;28;20202;-73
2023/03/22 03:09:36;;;;;;;13.23;11.87;;;9.60;99.90;;;;;;5008547;28;20233;-73
2023/03/22 03:12:09;;;;;;;15.37;12.23;;;9.50;99.90;;;;;;5008615;28;20302;-73
2023/03/22 03:14:36;;;;;;;13.93;12.47;;;9.60;99.90;;;;;;5008171;28;20228;-73
2023/03/22 03:17:18;;;;;;;14.27;12.60;;;9.50;99.90;;;;;;5008924;28;20245;-72
2023/03/22 03:19:52;;;;;;;15.27;12.33;;;9.40;99.90;;;;;;5008358;28;20201;-71
2023/03/22 03:22:31;;;;;;;15.83;12.53;;;9.40;99.90;;;;;;5007810;28;20284;-71
2023/03/22 03:25:04;;;;;;;18.07;12.57;;;9.30;99.90;;;;;;5005695;28;20826;-71
2023/03/22 03:27:38;;;;;;;14.03;12.60;;;9.30;99.90;;;;;;5007277;28;20212;-72
2023/03/22 03:30:10;;;;;;;16.13;13.23;;;9.30;99.90;;;;;;5008110;28;20284;-72
2023/03/22 03:32:45;;;;;;;15.97;13.03;;;9.40;99.90;;;;;;5008420;28;20235;-73
2023/03/22 03:35:21;;;;;;;15.10;13.50;;;9.40;99.90;;;;;;5006437;28;20850;-73
2023/03/22 03:37:51;;;;;;;15.33;13.00;;;9.50;99.90;;;;;;5006916;28;20306;-72
2023/03/22 03:40:21;;;;;;;13.83;12.37;;;9.50;99.90;;;;;;5006334;28;20329;-73
2023/03/22 03:42:52;;;;;;;14.17;12.67;;;9.50;99.90;;;;;;5006207;28;20237;-73
2023/03/22 03:45:21;;;;;;;14.73;12.30;;;9.60;99.90;;;;;;5006725;28;20292;-73
2023/03/22 03:47:55;;;;;;;16.30;12.30;;;9.60;99.90;;;;;;5006662;28;20241;-73
2023/03/22 03:50:23;;;;;;;14.97;12.63;;;9.60;99.90;;;;;;4992715;28;20856;-73
2023/03/22 03:52:52;;;;;;;14.20;12.37;;;9.60;99.90;;;;;;4988114;28;20268;-73
2023/03/22 03:55:20;;;;;;;13.57;12.17;;;9.60;99.90;;;;;;5004919;28;20356;-72
2023/03/22 03:57:46;;;;;;;14.00;12.40;;;9.60;99.90;;;;;;5005769;28;20213;-73
2023/03/22 04:00:16;;;;;;;13.17;11.87;;;9.60;99.90;;;;;;5006201;28;20318;-73
2023/03/22 04:02:43;;;;;;;15.07;12.07;;;9.60;99.90;;;;;;5004974;28;20650;-73
2023/03/22 04:05:11;;;;;;;15.17;12.53;;;9.60;99.90;;;;;;5005373;28;20210;-74
2023/03/22 04:07:38;;;;;;;13.07;11.67;;;9.60;99.90;;;;;;5007698;28;20235;-73
2023/03/22 04:10:06;;;;;;;13.37;11.90;;;9.50;99.90;;;;;;5006945;28;20320;-73
2023/03/22 04:12:34;;;;;;;12.90;11.60;;;9.50;99.90;;;;;;4992584;28;20580;-73
2023/03/22 04:15:01;;;;;;;13.80;12.37;;;9.40;99.90;;;;;;4987534;28;20237;-73
2023/03/22 04:17:30;;;;;;;15.17;12.23;;;9.50;99.90;;;;;;4987239;28;20261;-73
2023/03/22 04:19:57;;;;;;;13.00;11.63;;;9.50;99.90;;;;;;4987192;28;20211;-73
2023/03/22 04:22:27;;;;;;;13.20;11.77;;;9.50;99.90;;;;;;4987378;28;20216;-73
2023/03/22 04:24:54;;;;;;;13.27;11.87;;;9.60;99.90;;;;;;4987359;28;20238;-73
2023/03/22 04:27:21;;;;;;;12.57;11.23;;;9.60;99.90;;;;;;4987345;28;20242;-73
2023/03/22 04:29:49;;;;;;;12.63;11.40;;;9.60;99.90;;;;;;4987139;28;20214;-73
2023/03/22 04:32:18;;;;;;;12.93;11.60;;;9.60;99.90;;;;;;4987741;28;20214;-73
2023/03/22 04:34:46;;;;;;;14.17;11.50;;;9.60;99.90;;;;;;4987481;28;20242;-73
2023/03/22 04:37:13;;;;;;;13.20;11.80;;;9.60;99.90;;;;;;4987834;28;20304;-73
2023/03/22 04:39:40;;;;;;;14.07;11.83;;;9.60;99.90;;;;;;4988026;28;20234;-73
2023/03/22 04:42:07;;;;;;;12.40;11.20;;;9.60;99.90;;;;;;4998482;28;20296;-73
2023/03/22 04:44:34;;;;;;;13.67;11.17;;;9.60;99.90;;;;;;5007146;28;20307;-73
2023/03/22 04:47:01;;;;;;;13.50;11.10;;;9.60;99.90;;;;;;5006854;28;20292;-74
2023/03/22 04:49:28;;;;;;;12.80;11.50;;;9.60;99.90;;;;;;5006982;28;20211;-73
2023/03/22 04:51:58;;;;;;;13.07;11.73;;;9.60;99.90;;;;;;5006735;28;20650;-73
2023/03/22 04:54:25;;;;;;;14.43;11.27;;;9.60;99.90;;;;;;5006784;28;20233;-73
2023/03/22 04:56:52;;;;;;;13.30;11.93;;;9.60;99.90;;;;;;5007061;28;20240;-73
2023/03/22 04:59:19;;;;;;;14.90;12.20;;;9.60;99.90;;;;;;5006771;28;20229;-73
2023/03/22 05:01:46;;;;;;;14.23;11.97;;;9.60;99.90;;;;;;5007099;28;20249;-74
2023/03/22 05:04:14;;;;;;;12.93;11.63;;;9.60;99.90;;;;;;5006824;28;20638;-74
2023/03/22 05:06:41;;;;;;;12.47;11.17;;;9.50;99.90;;;;;;5006210;28;20688;-73
2023/03/22 05:09:10;;;;;;;12.93;11.57;;;9.50;99.90;;;;;;5006548;28;20237;-73
2023/03/22 05:11:37;;;;;;;12.37;10.77;;;9.60;99.90;;;;;;5006661;28;20312;-73
2023/03/22 05:14:04;;;;;;;13.17;11.87;;;9.60;99.90;;;;;;5006492;28;20293;-73
2023/03/22 05:16:31;;;;;;;14.70;11.37;;;9.50;99.90;;;;;;5006577;28;20237;-73
2023/03/22 05:19:01;;;;;;;13.67;11.47;;;9.50;99.90;;;;;;5005961;28;20653;-73
2023/03/22 05:21:35;;;;;;;13.10;11.80;;;9.50;99.90;;;;;;5006447;28;20213;-73
2023/03/22 05:24:02;;;;;;;12.50;11.20;;;9.50;99.90;;;;;;5006500;28;20220;-73
2023/03/22 05:26:31;;;;;;;12.57;11.30;;;9.50;99.90;;;;;;5006349;28;20256;-73
2023/03/22 05:28:57;;;;;;;12.57;11.37;;;9.60;99.90;;;;;;5006000;28;20289;-73
2023/03/22 05:31:27;;;;;;;13.13;10.97;;;9.60;99.90;;;;;;5005871;28;20300;-73
2023/03/22 05:33:54;;;;;;;12.90;11.47;;;9.60;99.90;;;;;;5005810;28;20247;-73
2023/03/22 05:36:22;;;;;;;13.53;12.23;;;9.60;99.90;;;;;;5005917;28;20333;-73
2023/03/22 05:38:50;;;;;;;12.53;11.17;;;9.60;99.90;;;;;;5005844;28;20209;-73
2023/03/22 05:41:18;;;;;;;13.40;11.10;;;9.60;99.90;;;;;;5002405;28;20292;-73
2023/03/22 05:43:46;;;;;;;13.50;11.37;;;9.60;99.90;;;;;;4986086;28;20618;-73
2023/03/22 05:46:13;;;;;;;12.53;11.33;;;9.60;99.90;;;;;;5000597;28;20210;-73
2023/03/22 05:48:40;;;;;;;13.03;11.57;;;9.60;99.90;;;;;;5005961;28;20244;-74
2023/03/22 05:51:09;;;;;;;12.20;10.93;;;9.50;99.90;;;;;;5005947;28;20213;-74
2023/03/22 05:53:36;;;;;;;12.70;11.50;;;9.50;99.90;;;;;;5005892;28;20607;-73
2023/03/22 05:56:03;;;;;;;11.67;10.57;;;9.50;99.90;;;;;;5005752;28;20327;-73
2023/03/22 05:58:30;;;;;;;12.63;11.23;;;9.50;99.90;;;;;;5005579;28;20295;-73
2023/03/22 06:01:04;;;;;;;14.40;10.83;;;9.50;99.90;;;;;;5005551;28;20240;-73
2023/03/22 06:03:31;;;;;;;13.27;11.33;;;9.50;99.90;;;;;;5005526;28;20207;-73
2023/03/22 06:05:59;;;;;;;12.47;10.67;;;9.50;99.90;;;;;;5003984;28;20296;-73
2023/03/22 06:08:26;;;;;;;12.83;11.13;;;9.60;99.90;;;;;;5005765;28;20303;-73
2023/03/22 06:10:54;;;;;;;13.03;11.33;;;9.60;99.90;;;;;;5005151;28;20324;-73
2023/03/22 06:13:21;;;;;;;12.27;10.90;;;9.60;99.90;;;;;;5005772;28;20237;-73
2023/03/22 06:15:48;;;;;;;11.97;10.70;;;9.50;99.90;;;;;;5005197;28;20332;-74
2023/03/22 06:18:16;;;;;;;11.73;10.53;;;9.60;99.90;;;;;;5004841;28;20214;-73
2023/03/22 06:20:43;;;;;;;12.23;10.60;;;9.60;99.90;;;;;;5005194;28;20301;-74
2023/03/22 06:23:10;;;;;;;14.80;11.20;;;9.60;99.90;;;;;;5005084;28;20216;-73
2023/03/22 06:25:37;;;;;;;11.30;10.20;;;9.60;99.90;;;;;;5004968;28;20312;-73
2023/03/22 06:28:04;;;;;;;11.40;10.30;;;9.60;99.90;;;;;;5005032;28;20241;-73
2023/03/22 06:30:31;;;;;;;11.77;10.27;;;9.60;99.90;;;;;;5005211;28;20210;-74
2023/03/22 06:32:59;;;;;;;10.67;9.57;;;9.60;99.90;;;;;;5004934;28;20280;-72
2023/03/22 06:35:27;;;;;;;11.63;10.53;;;9.60;99.90;;;;;;5004509;28;20240;-73
2023/03/22 06:37:54;;;;;;;12.03;10.17;;;9.60;99.90;;;;;;5004789;28;20645;-72
2023/03/22 06:40:21;;;;;;;12.47;10.40;;;9.60;99.90;;;;;;5005136;28;20285;-72
2023/03/22 06:42:48;;;;;;;12.63;10.30;;;9.60;99.90;;;;;;5004882;28;20647;-72
2023/03/22 06:45:15;;;;;;;12.73;10.90;;;9.60;99.90;;;;;;5005251;28;20237;-73
2023/03/22 06:47:45;;;;;;;12.63;11.07;;;9.60;99.90;;;;;;5004997;28;20215;-73
2023/03/22 06:50:14;;;;;;;11.33;9.83;;;9.70;99.90;;;;;;5004846;28;20241;-73
2023/03/22 06:52:42;;;;;;;11.27;10.13;;;9.70;99.90;;;;;;5005028;28;20212;-72
2023/03/22 06:55:09;;;;;;;13.37;10.50;;;9.70;99.90;;;;;;5005140;28;20325;-73
2023/03/22 06:57:36;;;;;;;14.50;10.87;;;9.70;99.90;;;;;;5004913;28;20296;-73
2023/03/22 07:00:04;;;;;;;12.17;10.17;;;9.70;99.90;;;;;;5004637;28;20703;-74
2023/03/22 07:02:31;;;;;;;11.40;10.23;;;9.70;99.90;;;;;;5004973;28;20688;-75
2023/03/22 07:04:58;;;;;;;11.40;10.23;;;9.80;99.90;;;;;;5004754;28;20738;-73
2023/03/22 07:07:25;;;;;;;11.57;10.37;;;9.80;99.90;;;;;;5005281;28;20209;-73
2023/03/22 07:09:55;;;;;;;11.20;10.10;;;9.80;99.90;;;;;;5004676;28;20330;-73
2023/03/22 07:12:22;;;;;;;11.80;10.60;;;9.80;99.90;;;;;;5004871;28;20221;-72
2023/03/22 07:14:49;;;;;;;13.77;10.43;;;9.80;99.90;;;;;;5004707;28;20660;-73
2023/03/22 07:17:16;;;;;;;12.03;10.83;;;9.80;99.90;;;;;;5004699;28;20210;-73
2023/03/22 07:19:43;;;;;;;11.43;10.30;;;9.90;99.90;;;;;;5004571;28;20299;-73
2023/03/22 07:22:10;;;;;;;12.07;10.80;;;9.80;99.90;;;;;;5004659;28;20682;-73
2023/03/22 07:24:37;;;;;;;11.20;10.20;;;9.80;99.90;;;;;;5004467;28;20848;-73
2023/03/22 07:27:06;;;;;;;12.00;10.63;;;9.80;99.90;;;;;;5004497;28;20768;-73
2023/03/22 07:29:33;;;;;;;12.10;10.33;;;9.90;99.90;;;;;;5005956;28;20206;-73
2023/03/22 07:32:00;;;;;;;12.37;11.07;;;9.90;99.90;;;;;;5007760;28;20296;-73
2023/03/22 07:34:27;;;;;;;12.13;10.87;;;9.90;99.90;;;;;;5007554;28;20680;-74
2023/03/22 07:36:55;;;;;;;14.30;10.47;;;9.90;99.90;;;;;;5007863;28;20316;-73
2023/03/22 07:39:24;;;;;;;12.20;10.90;;;9.90;99.90;;;;;;5008256;28;20217;-72
2023/03/22 07:41:53;;;;;;;11.13;9.97;;;10.00;99.90;;;;;;5007452;28;20324;-73
2023/03/22 07:44:22;;;;;;;11.83;9.97;;;10.00;99.90;;;;;;5008150;28;20316;-73
2023/03/22 07:46:51;;;;;;;12.47;10.53;;;10.00;99.90;;;;;;5007673;28;20317;-73
2023/03/22 07:49:18;;;;;;;15.27;10.70;;;10.10;99.90;;;;;;5007786;28;20216;-73
2023/03/22 07:51:45;;;;;;;10.87;9.73;;;10.10;99.90;;;;;;5007745;28;20526;-73
2023/03/22 07:54:15;;;;;;;15.70;10.10;;;10.10;99.90;;;;;;5007709;28;20210;-74
2023/03/22 07:56:43;;;;;;;10.80;9.70;;;10.20;99.90;;;;;;5007661;28;20229;-73
2023/03/22 07:59:10;;;;;;;12.30;10.57;;;10.20;99.90;;;;;;5007705;28;20240;-73
2023/03/22 08:01:38;;;;;;;11.57;10.03;;;10.20;99.90;;;;;;5007735;28;20209;-73
2023/03/22 08:04:05;;;;;;;12.37;10.00;;;10.30;99.90;;;;;;5007733;28;20312;-74
2023/03/22 08:06:35;;;;;;;12.57;10.80;;;10.30;99.90;;;;;;5008047;28;20218;-74
2023/03/22 08:09:02;;;;;;;12.07;10.10;;;10.40;99.90;;;;;;5008021;28;20210;-74
2023/03/22 08:11:29;;;;;;;11.30;10.20;;;10.40;99.90;;;;;;5007673;28;20280;-74
2023/03/22 08:13:56;;;;;;;11.17;9.67;;;10.50;99.90;;;;;;5007328;28;20676;-74
2023/03/22 08:16:23;;;;;;;10.73;9.73;;;10.50;99.90;;;;;;5007808;28;20332;-74
2023/03/22 08:18:51;;;;;;;12.00;10.13;;;10.50;99.90;;;;;;5007591;28;20215;-72
2023/03/22 08:21:18;;;;;;;10.77;9.67;;;10.60;99.90;;;;;;5007480;28;20237;-74
2023/03/22 08:23:46;;;;;;;10.73;9.70;;;10.60;99.90;;;;;;5007079;28;20213;-74
2023/03/22 08:26:13;;;;;;;10.80;9.80;;;10.60;99.90;;;;;;5007374;28;20205;-73
2023/03/22 08:28:40;;;;;;;12.20;9.50;;;10.60;99.90;;;;;;5000107;28;20548;-73
2023/03/22 08:31:11;;;;;;;12.43;9.80;;;10.70;99.90;;;;;;5007453;28;20214;-73
2023/03/22 08:33:38;;;;;;;10.63;9.53;;;10.70;99.90;;;;;;5006851;28;20216;-73
2023/03/22 08:36:09;;;;;;;10.13;9.07;;;10.70;99.90;;;;;;5006876;28;20225;-73
2023/03/22 08:38:36;;;;;;;10.63;9.50;;;10.70;99.90;;;;;;5006807;28;20193;-73
2023/03/22 08:41:03;;;;;;;10.27;9.27;;;10.80;99.90;;;;;;5006245;28;20320;-73
2023/03/22 08:43:30;;;;;;;11.47;9.37;;;10.80;99.90;;;;;;5006806;28;20657;-73
2023/03/22 08:45:57;;;;;;;10.43;9.07;;;10.80;99.90;;;;;;5006840;28;20317;-73
2023/03/22 08:48:26;;;;;;;10.33;9.10;;;10.90;99.90;;;;;;5006773;28;20752;-73
2023/03/22 08:50:53;;;;;;;10.37;9.27;;;10.90;99.90;;;;;;5006642;28;20217;-73
2023/03/22 08:53:21;;;;;;;11.17;8.53;;;10.90;99.90;;;;;;5007078;28;20206;-73
2023/03/22 08:55:48;;;;;;;10.37;9.33;;;11.00;99.90;;;;;;5006476;28;20360;-75
2023/03/22 08:58:18;;;;;;;9.53;8.63;;;11.00;99.90;;;;;;5006550;28;20265;-74
2023/03/22 09:00:45;;;;;;;9.43;8.50;;;11.10;99.90;;;;;;5006863;28;20213;-74
2023/03/22 09:03:12;;;;;;;11.30;8.47;;;11.10;99.90;;;;;;5006679;28;20309;-74
2023/03/22 09:05:39;;;;;;;9.70;8.77;;;11.10;99.90;;;;;;5006927;28;20206;-74
2023/03/22 09:08:06;;;;;;;11.80;8.87;;;11.20;99.90;;;;;;5006886;28;20205;-74
2023/03/22 09:10:37;;;;;;;11.07;8.67;;;11.20;99.90;;;;;;5006716;28;20336;-73
2023/03/22 09:13:04;;;;;;;9.40;8.43;;;11.20;99.90;;;;;;5006722;28;20659;-73
2023/03/22 09:15:31;;;;;;;9.50;8.50;;;11.30;99.90;;;;;;5006682;28;22203;-73
2023/03/22 09:17:58;;;;;;;9.50;8.57;;;11.30;99.90;;;;;;5006355;28;20219;-72
2023/03/22 09:20:26;;;;;;;9.57;7.90;;;11.40;99.90;;;;;;5006663;28;20256;-73
2023/03/22 09:22:52;;;;;;;9.50;8.50;;;11.40;99.90;;;;;;5006308;28;20201;-74
2023/03/22 09:25:20;;;;;;;9.10;8.20;;;11.50;99.90;;;;;;5006762;28;20293;-73
2023/03/22 09:27:49;;;;;;;8.70;7.90;;;11.50;99.90;;;;;;5006580;28;20215;-73
2023/03/22 09:30:16;;;;;;;9.10;8.20;;;11.60;99.90;;;;;;5006532;28;20213;-73
2023/03/22 09:32:43;;;;;;;9.07;8.17;;;11.60;99.90;;;;;;5006445;28;20201;-73
2023/03/22 09:35:10;;;;;;;8.87;7.97;;;11.60;99.90;;;;;;5006759;28;20331;-73
2023/03/22 09:37:37;;;;;;;8.87;8.00;;;11.70;99.90;;;;;;5006300;28;20237;-73
2023/03/22 09:40:06;;;;;;;10.33;7.90;;;11.70;99.90;;;;;;5006458;28;20213;-72
2023/03/22 09:42:37;;;;;;;9.43;8.17;;;11.80;99.90;;;;;;5006360;28;20244;-74
2023/03/22 09:45:14;;;;;;;8.57;7.77;;;11.80;99.90;;;;;;5006346;28;20279;-74
2023/03/22 09:47:45;;;;;;;7.93;7.23;;;11.90;99.90;;;;;;5006233;28;20291;-73
2023/03/22 09:50:18;;;;;;;8.40;7.60;;;12.00;99.90;;;;;;5006315;28;20216;-73
2023/03/22 09:52:45;;;;;;;8.40;7.60;;;12.10;99.90;;;;;;5004891;28;20241;-73
2023/03/22 09:55:19;;;;;;;8.77;7.87;;;12.20;99.90;;;;;;5006014;28;20212;-73
2023/03/22 09:57:53;;;;;;;7.97;7.17;;;12.40;99.90;;;;;;5005449;28;20239;-73
2023/03/22 10:00:27;;;;;;;8.30;7.53;;;12.50;99.90;;;;;;5006022;28;20228;-73
2023/03/22 10:03:02;;;;;;;8.10;7.30;;;12.60;99.90;;;;;;5006105;28;20301;-73
2023/03/22 10:05:37;;;;;;;6.87;6.27;;;12.60;99.90;;;;;;5005797;28;20197;-73
2023/03/22 10:08:23;;;;;;;7.77;7.00;;;12.60;99.90;;;;;;5005762;28;20313;-73
2023/03/22 10:10:51;;;;;;;7.93;6.53;;;12.60;99.90;;;;;;5005313;28;20237;-73
2023/03/22 10:13:26;;;;;;;8.03;7.27;;;12.70;99.90;;;;;;5005907;28;20210;-73
2023/03/22 10:15:57;;;;;;;7.90;7.00;;;12.70;99.90;;;;;;5005641;28;20707;-73
2023/03/22 10:18:28;;;;;;;7.70;6.90;;;12.70;99.90;;;;;;5006227;28;20197;-73
2023/03/22 10:21:00;;;;;;;8.00;7.20;;;12.70;99.90;;;;;;5005168;28;20209;-74
2023/03/22 10:23:31;;;;;;;7.50;6.80;;;12.80;99.90;;;;;;5005851;28;20288;-73
2023/03/22 10:26:00;;;;;;;7.20;6.50;;;12.90;99.90;;;;;;5005832;28;20244;-73
2023/03/22 10:28:31;;;;;;;6.37;5.87;;;13.10;99.90;;;;;;5005441;28;20216;-73
2023/03/22 10:30:59;;;;;;;6.67;5.90;;;13.30;99.90;;;;;;5005354;28;20198;-74
2023/03/22 10:33:37;;;;;;;6.60;6.00;;;13.40;99.90;;;;;;5005757;28;20205;-74
2023/03/22 10:36:08;;;;;;;6.30;5.80;;;13.50;99.90;;;;;;5005196;28;20240;-74
2023/03/22 10:38:40;;;;;;;6.60;6.07;;;13.50;99.90;;;;;;5005650;28;21078;-73
2023/03/22 10:41:08;;;;;;;6.43;5.70;;;13.50;99.90;;;;;;5006599;28;20229;-74
2023/03/22 10:43:37;;;;;;;6.23;4.60;;;13.60;99.90;;;;;;5024850;28;20679;-73
2023/03/22 10:46:10;;;;;;;5.73;5.00;;;13.70;99.90;;;;;;5011986;28;20935;-73
2023/03/22 10:48:41;;;;;;;5.60;5.17;;;13.70;99.90;;;;;;5005338;28;20201;-74
2023/03/22 10:51:16;;;;;;;5.67;5.17;;;13.60;99.90;;;;;;5005534;28;20278;-73
2023/03/22 10:53:47;;;;;;;5.70;5.20;;;13.70;99.90;;;;;;5005509;28;20224;-74
2023/03/22 10:56:17;;;;;;;5.83;5.20;;;13.60;99.90;;;;;;5005581;28;20232;-74
2023/03/22 10:58:44;;;;;;;5.73;5.17;;;13.60;99.90;;;;;;5005291;28;20256;-74
2023/03/22 11:01:15;;;;;;;5.73;5.33;;;13.60;99.90;;;;;;5005426;28;20296;-74
2023/03/22 11:03:45;;;;;;;5.83;5.20;;;13.60;99.90;;;;;;5005029;28;20202;-74
2023/03/22 11:06:13;;;;;;;5.67;5.20;;;13.60;99.90;;;;;;5008875;28;20241;-74
2023/03/22 11:08:43;;;;;;;5.63;5.13;;;13.60;99.90;;;;;;5008727;28;20225;-74
2023/03/22 11:11:26;;;;;;;5.53;5.13;;;13.70;99.90;;;;;;5008878;28;20727;-74
2023/03/22 11:13:58;;;;;;;5.60;5.20;;;13.60;99.90;;;;;;5007081;28;20306;-74
2023/03/22 11:16:27;;;;;;;5.67;5.27;;;13.60;99.90;;;;;;5008602;28;20233;-74
2023/03/22 11:18:57;;;;;;;5.50;5.00;;;13.60;99.90;;;;;;5008743;28;20645;-74
2023/03/22 11:21:28;;;;;;;5.90;5.40;;;13.60;99.90;;;;;;5009239;28;20288;-74
2023/03/22 11:23:59;;;;;;;5.40;5.00;;;13.50;99.90;;;;;;5008735;28;20288;-74
2023/03/22 11:26:30;;;;;;;5.63;5.13;;;13.50;99.90;;;;;;5008827;28;20305;-74
2023/03/22 11:29:05;;;;;;;5.20;4.80;;;13.50;99.90;;;;;;5007938;28;20202;-74
2023/03/22 11:31:53;;;;;;;5.00;4.47;;;13.50;99.90;;;;;;5008777;28;20528;-74
2023/03/22 11:34:22;;;;;;;4.33;3.93;;;13.50;99.90;;;;;;5008195;28;20750;-74
2023/03/22 11:36:55;;;;;;;8.57;3.50;;;13.60;99.90;;;;;;5008227;28;20295;-75
2023/03/22 11:39:23;;;;;;;4.00;3.23;;;13.90;99.90;;;;;;5008520;28;20570;-74
2023/03/22 11:41:51;;;;;;;3.50;3.20;;;14.20;99.90;;;;;;5015112;28;20240;-74
2023/03/22 11:44:21;;;;;;;4.37;2.90;;;14.40;99.90;;;;;;5028212;28;20263;-75
2023/03/22 11:46:56;;;;;;;4.43;2.70;;;14.60;99.90;;;;;;5008512;28;20245;-74
2023/03/22 11:49:27;;;;;;;3.00;2.70;;;14.80;99.90;;;;;;5008406;28;20204;-74
2023/03/22 11:51:55;;;;;;;2.73;2.53;;;15.00;99.90;;;;;;5008324;28;20293;-74
2023/03/22 11:54:28;;;;;;;2.83;2.40;;;15.30;99.90;;;;;;5008305;28;20292;-74
2023/03/22 11:56:58;;;;;;;2.60;2.40;;;15.50;99.90;;;;;;5007714;28;20319;-74
2023/03/22 11:59:29;;;;;;;3.80;3.47;;;15.50;99.90;;;;;;5008370;28;20201;-74
2023/03/22 12:02:03;;;;;;;4.37;4.03;;;15.60;99.90;;;;;;5007990;28;20703;-74
2023/03/22 12:04:37;;;;;;;4.03;3.73;;;15.50;99.90;;;;;;5008301;28;20288;-74
2023/03/22 12:07:10;;;;;;;4.00;3.60;;;15.40;99.90;;;;;;5008077;28;20198;-74
2023/03/22 12:09:43;;;;;;;3.50;3.07;;;15.40;99.90;;;;;;5007534;28;20340;-74
2023/03/22 12:12:16;;;;;;;3.90;2.63;;;15.60;99.90;;;;;;5007642;28;20205;-74
2023/03/22 12:14:48;;;;;;;3.50;3.20;;;15.80;99.90;;;;;;5007772;28;20814;-75
2023/03/22 12:17:25;;;;;;;3.83;3.33;;;15.90;99.90;;;;;;5006870;28;20227;-74
2023/03/22 12:20:04;;;;;;;3.33;3.10;;;16.00;99.90;;;;;;5007407;28;20280;-74
2023/03/22 12:22:34;;;;;;;3.43;3.13;;;16.10;99.90;;;;;;5007225;28;20227;-75
2023/03/22 12:25:02;;;;;;;3.03;2.83;;;16.10;99.90;;;;;;5007202;28;20210;-74
2023/03/22 12:27:34;;;;;;;3.63;3.33;;;16.00;99.90;;;;;;5007512;28;20239;-75
2023/03/22 12:30:07;;;;;;;3.93;3.40;;;16.10;99.90;;;;;;5007089;28;20638;-74
2023/03/22 12:32:41;;;;;;;5.37;3.30;;;16.20;99.90;;;;;;5007683;28;20205;-74
2023/03/22 12:35:14;;;;;;;5.90;3.10;;;16.20;99.90;;;;;;5007315;28;20200;-75
2023/03/22 12:37:43;;;;;;;3.07;2.87;;;16.30;99.90;;;;;;5007064;28;20237;-74
2023/03/22 12:40:21;;;;;;;3.13;2.83;;;16.40;99.90;;;;;;5007407;28;20296;-74
2023/03/22 12:42:54;;;;;;;3.07;2.73;;;16.50;99.90;;;;;;5005556;28;20660;-74
2023/03/22 12:45:26;;;;;;;4.30;2.70;;;16.80;99.90;;;;;;5007133;28;20298;-74
2023/03/22 12:48:00;;;;;;;3.60;2.77;;;16.70;99.90;;;;;;5006880;28;20203;-75
2023/03/22 12:50:33;;;;;;;3.43;2.60;;;16.80;99.90;;;;;;5007030;28;20389;-74
2023/03/22 12:53:01;;;;;;;3.23;2.40;;;16.80;99.90;;;;;;5006555;28;20244;-75